sensor_id;sensor_type;location;lat;lon;timestamp;temperature;humidity
43581;DHT22;29175;51.030;4.606;2022-12-20T00:00:03;12.80;99.90
43581;DHT22;29175;51.030;4.606;2022-12-20T00:02:29;12.60;99.90
43581;DHT22;29175;51.030;4.606;2022-12-20T00:04:55;12.50;99.90
43581;DHT22;29175;51.030;4.606;2022-12-20T00:07:21;12.60;99.90
43581;DHT22;29175;51.030;4.606;2022-12-20T00:09:46;12.70;99.90
43581;DHT22;29175;51.030;4.606;2022-12-20T00:12:12;12.80;99.90
43581;DHT22;29175;51.030;4.606;2022-12-20T00:14:38;12.80;99.90
43581;DHT22;29175;51.030;4.606;2022-12-20T00:17:03;12.90;99.90
43581;DHT22;29175;51.030;4.606;2022-12-20T00:19:29;12.80;99.90
43581;DHT22;29175;51.030;4.606;2022-12-20T00:21:54;12.70;99.90
43581;DHT22;29175;51.030;4.606;2022-12-20T00:24:20;12.60;99.90
43581;DHT22;29175;51.030;4.606;2022-12-20T00:26:46;12.50;99.90
43581;DHT22;29175;51.030;4.606;2022-12-20T00:29:12;12.40;99.90
43581;DHT22;29175;51.030;4.606;2022-12-20T00:31:39;12.50;99.90
43581;DHT22;29175;51.030;4.606;2022-12-20T00:34:04;12.40;99.90
43581;DHT22;29175;51.030;4.606;2022-12-20T00:36:31;12.30;99.90
43581;DHT22;29175;51.030;4.606;2022-12-20T00:38:58;12.30;99.90
43581;DHT22;29175;51.030;4.606;2022-12-20T00:41:30;12.50;99.90
43581;DHT22;29175;51.030;4.606;2022-12-20T00:43:56;12.20;99.90
43581;DHT22;29175;51.030;4.606;2022-12-20T00:46:23;12.30;99.90
43581;DHT22;29175;51.030;4.606;2022-12-20T00:48:49;12.10;99.90
43581;DHT22;29175;51.030;4.606;2022-12-20T00:51:20;12.00;99.90
43581;DHT22;29175;51.030;4.606;2022-12-20T00:53:46;11.90;99.90
43581;DHT22;29175;51.030;4.606;2022-12-20T00:56:12;11.90;99.90
43581;DHT22;29175;51.030;4.606;2022-12-20T00:58:41;11.90;99.90
43581;DHT22;29175;51.030;4.606;2022-12-20T01:01:20;12.00;99.90
43581;DHT22;29175;51.030;4.606;2022-12-20T01:03:46;12.00;99.90
43581;DHT22;29175;51.030;4.606;2022-12-20T01:06:12;12.00;99.90
43581;DHT22;29175;51.030;4.606;2022-12-20T01:08:38;12.00;99.90
43581;DHT22;29175;51.030;4.606;2022-12-20T01:13:30;12.00;99.90
43581;DHT22;29175;51.030;4.606;2022-12-20T01:15:57;12.00;99.90
43581;DHT22;29175;51.030;4.606;2022-12-20T01:18:28;12.10;99.90
43581;DHT22;29175;51.030;4.606;2022-12-20T01:21:07;12.20;99.90
43581;DHT22;29175;51.030;4.606;2022-12-20T01:23:34;12.20;99.90
43581;DHT22;29175;51.030;4.606;2022-12-20T01:26:01;12.10;99.90
43581;DHT22;29175;51.030;4.606;2022-12-20T01:28:29;12.00;99.90
43581;DHT22;29175;51.030;4.606;2022-12-20T01:30:55;12.10;99.90
43581;DHT22;29175;51.030;4.606;2022-12-20T01:33:20;12.20;99.90
43581;DHT22;29175;51.030;4.606;2022-12-20T01:36:04;12.30;99.90
43581;DHT22;29175;51.030;4.606;2022-12-20T01:38:31;12.60;99.90
43581;DHT22;29175;51.030;4.606;2022-12-20T01:40:57;12.80;99.90
43581;DHT22;29175;51.030;4.606;2022-12-20T01:43:25;12.60;99.90
43581;DHT22;29175;51.030;4.606;2022-12-20T01:46:08;12.40;99.90
43581;DHT22;29175;51.030;4.606;2022-12-20T01:48:34;12.30;99.90
43581;DHT22;29175;51.030;4.606;2022-12-20T01:51:00;12.40;99.90
43581;DHT22;29175;51.030;4.606;2022-12-20T01:53:25;12.40;99.90
43581;DHT22;29175;51.030;4.606;2022-12-20T01:55:52;12.50;99.90
43581;DHT22;29175;51.030;4.606;2022-12-20T01:58:19;12.40;99.90
43581;DHT22;29175;51.030;4.606;2022-12-20T02:00:46;12.50;99.90
43581;DHT22;29175;51.030;4.606;2022-12-20T02:03:13;12.40;99.90
43581;DHT22;29175;51.030;4.606;2022-12-20T02:05:42;12.30;99.90
43581;DHT22;29175;51.030;4.606;2022-12-20T02:08:10;12.40;99.90
43581;DHT22;29175;51.030;4.606;2022-12-20T02:13:52;12.40;99.90
43581;DHT22;29175;51.030;4.606;2022-12-20T02:16:23;12.40;99.90
43581;DHT22;29175;51.030;4.606;2022-12-20T02:30:41;12.60;99.90
43581;DHT22;29175;51.030;4.606;2022-12-20T02:33:10;12.40;99.90
43581;DHT22;29175;51.030;4.606;2022-12-20T02:35:38;12.60;99.90
43581;DHT22;29175;51.030;4.606;2022-12-20T02:38:28;12.50;99.90
43581;DHT22;29175;51.030;4.606;2022-12-20T02:41:20;12.50;99.90
43581;DHT22;29175;51.030;4.606;2022-12-20T02:43:51;12.50;99.90
43581;DHT22;29175;51.030;4.606;2022-12-20T02:46:37;12.60;99.90
43581;DHT22;29175;51.030;4.606;2022-12-20T02:49:14;13.00;99.90
43581;DHT22;29175;51.030;4.606;2022-12-20T02:51:46;12.80;99.90
43581;DHT22;29175;51.030;4.606;2022-12-20T02:54:13;12.60;99.90
43581;DHT22;29175;51.030;4.606;2022-12-20T02:59:20;12.60;99.90
43581;DHT22;29175;51.030;4.606;2022-12-20T03:01:50;12.70;99.90
43581;DHT22;29175;51.030;4.606;2022-12-20T03:04:20;12.80;99.90
43581;DHT22;29175;51.030;4.606;2022-12-20T03:07:07;13.00;99.90
43581;DHT22;29175;51.030;4.606;2022-12-20T03:09:36;13.60;99.90
43581;DHT22;29175;51.030;4.606;2022-12-20T03:12:01;13.10;99.90
43581;DHT22;29175;51.030;4.606;2022-12-20T03:14:27;13.00;99.90
43581;DHT22;29175;51.030;4.606;2022-12-20T03:16:53;13.00;99.90
43581;DHT22;29175;51.030;4.606;2022-12-20T03:19:19;13.10;99.90
43581;DHT22;29175;51.030;4.606;2022-12-20T03:21:45;13.00;99.90
43581;DHT22;29175;51.030;4.606;2022-12-20T03:24:11;12.80;99.90
43581;DHT22;29175;51.030;4.606;2022-12-20T03:26:39;12.80;99.90
43581;DHT22;29175;51.030;4.606;2022-12-20T03:29:05;12.80;99.90
43581;DHT22;29175;51.030;4.606;2022-12-20T03:31:32;12.90;99.90
43581;DHT22;29175;51.030;4.606;2022-12-20T03:33:57;12.80;99.90
43581;DHT22;29175;51.030;4.606;2022-12-20T03:36:23;13.00;99.90
43581;DHT22;29175;51.030;4.606;2022-12-20T03:38:50;13.10;99.90
43581;DHT22;29175;51.030;4.606;2022-12-20T03:41:16;13.00;99.90
43581;DHT22;29175;51.030;4.606;2022-12-20T03:43:42;13.00;99.90
43581;DHT22;29175;51.030;4.606;2022-12-20T03:46:08;13.10;99.90
43581;DHT22;29175;51.030;4.606;2022-12-20T03:48:33;13.20;99.90
43581;DHT22;29175;51.030;4.606;2022-12-20T03:50:59;13.10;99.90
43581;DHT22;29175;51.030;4.606;2022-12-20T03:53:25;12.90;99.90
43581;DHT22;29175;51.030;4.606;2022-12-20T03:55:50;13.10;99.90
43581;DHT22;29175;51.030;4.606;2022-12-20T03:58:16;13.00;99.90
43581;DHT22;29175;51.030;4.606;2022-12-20T04:00:41;13.20;99.90
43581;DHT22;29175;51.030;4.606;2022-12-20T04:03:07;13.20;99.90
43581;DHT22;29175;51.030;4.606;2022-12-20T04:05:33;13.20;99.90
43581;DHT22;29175;51.030;4.606;2022-12-20T04:07:59;13.40;99.90
43581;DHT22;29175;51.030;4.606;2022-12-20T04:10:24;13.20;99.90
43581;DHT22;29175;51.030;4.606;2022-12-20T04:12:50;13.00;99.90
43581;DHT22;29175;51.030;4.606;2022-12-20T04:15:16;12.80;99.90
43581;DHT22;29175;51.030;4.606;2022-12-20T04:17:42;12.80;99.90
43581;DHT22;29175;51.030;4.606;2022-12-20T04:20:12;12.90;99.90
43581;DHT22;29175;51.030;4.606;2022-12-20T04:22:48;13.10;99.90
43581;DHT22;29175;51.030;4.606;2022-12-20T04:25:15;13.30;99.90
43581;DHT22;29175;51.030;4.606;2022-12-20T04:27:41;13.40;99.90
43581;DHT22;29175;51.030;4.606;2022-12-20T04:30:08;13.50;99.90
43581;DHT22;29175;51.030;4.606;2022-12-20T04:32:34;13.20;99.90
43581;DHT22;29175;51.030;4.606;2022-12-20T04:35:00;13.10;99.90
43581;DHT22;29175;51.030;4.606;2022-12-20T04:37:27;13.00;99.90
43581;DHT22;29175;51.030;4.606;2022-12-20T04:39:53;12.90;99.90
43581;DHT22;29175;51.030;4.606;2022-12-20T04:42:19;13.00;99.90
43581;DHT22;29175;51.030;4.606;2022-12-20T04:44:46;12.90;99.90
43581;DHT22;29175;51.030;4.606;2022-12-20T04:47:12;12.80;99.90
43581;DHT22;29175;51.030;4.606;2022-12-20T04:49:37;12.70;99.90
43581;DHT22;29175;51.030;4.606;2022-12-20T04:52:03;12.70;99.90
43581;DHT22;29175;51.030;4.606;2022-12-20T04:54:47;12.70;99.90
43581;DHT22;29175;51.030;4.606;2022-12-20T04:57:13;12.70;99.90
43581;DHT22;29175;51.030;4.606;2022-12-20T04:59:39;12.60;99.90
43581;DHT22;29175;51.030;4.606;2022-12-20T05:02:05;12.60;99.90
43581;DHT22;29175;51.030;4.606;2022-12-20T05:04:31;12.70;99.90
43581;DHT22;29175;51.030;4.606;2022-12-20T05:06:57;12.60;99.90
43581;DHT22;29175;51.030;4.606;2022-12-20T05:09:22;12.60;99.90
43581;DHT22;29175;51.030;4.606;2022-12-20T05:11:50;12.70;99.90
43581;DHT22;29175;51.030;4.606;2022-12-20T05:14:16;12.80;99.90
43581;DHT22;29175;51.030;4.606;2022-12-20T05:16:42;12.70;99.90
43581;DHT22;29175;51.030;4.606;2022-12-20T05:19:11;12.60;99.90
43581;DHT22;29175;51.030;4.606;2022-12-20T05:21:36;12.80;99.90
43581;DHT22;29175;51.030;4.606;2022-12-20T05:24:22;13.10;99.90
43581;DHT22;29175;51.030;4.606;2022-12-20T05:27:06;13.00;99.90
43581;DHT22;29175;51.030;4.606;2022-12-20T05:29:32;13.10;99.90
43581;DHT22;29175;51.030;4.606;2022-12-20T05:31:57;13.00;99.90
43581;DHT22;29175;51.030;4.606;2022-12-20T05:34:23;13.00;99.90
43581;DHT22;29175;51.030;4.606;2022-12-20T05:36:49;12.90;99.90
43581;DHT22;29175;51.030;4.606;2022-12-20T05:39:15;12.80;99.90
43581;DHT22;29175;51.030;4.606;2022-12-20T05:41:41;12.70;99.90
43581;DHT22;29175;51.030;4.606;2022-12-20T05:44:07;12.70;99.90
43581;DHT22;29175;51.030;4.606;2022-12-20T05:46:33;12.70;99.90
43581;DHT22;29175;51.030;4.606;2022-12-20T05:48:59;12.70;99.90
43581;DHT22;29175;51.030;4.606;2022-12-20T05:51:25;12.70;99.90
43581;DHT22;29175;51.030;4.606;2022-12-20T05:53:51;12.80;99.90
43581;DHT22;29175;51.030;4.606;2022-12-20T05:56:17;12.80;99.90
43581;DHT22;29175;51.030;4.606;2022-12-20T05:58:42;12.60;99.90
43581;DHT22;29175;51.030;4.606;2022-12-20T06:01:08;12.60;99.90
43581;DHT22;29175;51.030;4.606;2022-12-20T06:03:37;12.50;99.90
43581;DHT22;29175;51.030;4.606;2022-12-20T06:06:03;12.60;99.90
43581;DHT22;29175;51.030;4.606;2022-12-20T06:08:29;12.50;99.90
43581;DHT22;29175;51.030;4.606;2022-12-20T06:10:55;12.60;99.90
43581;DHT22;29175;51.030;4.606;2022-12-20T06:13:21;12.60;99.90
43581;DHT22;29175;51.030;4.606;2022-12-20T06:15:47;12.60;99.90
43581;DHT22;29175;51.030;4.606;2022-12-20T06:18:12;12.60;99.90
43581;DHT22;29175;51.030;4.606;2022-12-20T06:20:39;12.60;99.90
43581;DHT22;29175;51.030;4.606;2022-12-20T06:23:05;12.50;99.90
43581;DHT22;29175;51.030;4.606;2022-12-20T06:25:31;12.60;99.90
43581;DHT22;29175;51.030;4.606;2022-12-20T06:27:57;12.90;99.90
43581;DHT22;29175;51.030;4.606;2022-12-20T06:30:23;12.80;99.90
43581;DHT22;29175;51.030;4.606;2022-12-20T06:32:50;12.70;99.90
43581;DHT22;29175;51.030;4.606;2022-12-20T06:35:16;12.60;99.90
43581;DHT22;29175;51.030;4.606;2022-12-20T06:37:42;12.60;99.90
43581;DHT22;29175;51.030;4.606;2022-12-20T06:40:10;12.60;99.90
43581;DHT22;29175;51.030;4.606;2022-12-20T06:42:36;12.50;99.90
43581;DHT22;29175;51.030;4.606;2022-12-20T06:45:04;12.60;99.90
43581;DHT22;29175;51.030;4.606;2022-12-20T06:47:29;12.70;99.90
43581;DHT22;29175;51.030;4.606;2022-12-20T06:49:55;12.70;99.90
43581;DHT22;29175;51.030;4.606;2022-12-20T06:52:21;12.80;99.90
43581;DHT22;29175;51.030;4.606;2022-12-20T06:54:47;12.90;99.90
43581;DHT22;29175;51.030;4.606;2022-12-20T06:57:13;13.00;99.90
43581;DHT22;29175;51.030;4.606;2022-12-20T06:59:39;13.00;99.90
43581;DHT22;29175;51.030;4.606;2022-12-20T07:02:09;13.10;99.90
43581;DHT22;29175;51.030;4.606;2022-12-20T07:04:35;13.20;99.90
43581;DHT22;29175;51.030;4.606;2022-12-20T07:07:02;13.20;99.90
43581;DHT22;29175;51.030;4.606;2022-12-20T07:09:28;13.10;99.90
43581;DHT22;29175;51.030;4.606;2022-12-20T07:11:55;13.10;99.90
43581;DHT22;29175;51.030;4.606;2022-12-20T07:14:20;13.30;99.90
43581;DHT22;29175;51.030;4.606;2022-12-20T07:16:47;13.30;99.90
43581;DHT22;29175;51.030;4.606;2022-12-20T07:19:13;13.20;99.90
43581;DHT22;29175;51.030;4.606;2022-12-20T07:21:40;13.30;99.90
43581;DHT22;29175;51.030;4.606;2022-12-20T07:24:07;13.30;99.90
43581;DHT22;29175;51.030;4.606;2022-12-20T07:26:33;13.10;99.90
43581;DHT22;29175;51.030;4.606;2022-12-20T07:28:58;12.90;99.90
43581;DHT22;29175;51.030;4.606;2022-12-20T07:31:24;12.90;99.90
43581;DHT22;29175;51.030;4.606;2022-12-20T07:33:50;12.70;99.90
43581;DHT22;29175;51.030;4.606;2022-12-20T07:36:16;13.10;99.90
43581;DHT22;29175;51.030;4.606;2022-12-20T07:38:41;13.10;99.90
43581;DHT22;29175;51.030;4.606;2022-12-20T07:43:35;12.60;99.90
43581;DHT22;29175;51.030;4.606;2022-12-20T07:46:01;12.70;99.90
43581;DHT22;29175;51.030;4.606;2022-12-20T07:48:28;13.00;99.90
43581;DHT22;29175;51.030;4.606;2022-12-20T07:50:58;12.80;99.90
43581;DHT22;29175;51.030;4.606;2022-12-20T07:53:26;12.80;99.90
43581;DHT22;29175;51.030;4.606;2022-12-20T07:55:53;12.90;99.90
43581;DHT22;29175;51.030;4.606;2022-12-20T07:58:20;12.70;99.90
43581;DHT22;29175;51.030;4.606;2022-12-20T08:00:47;12.70;99.90
43581;DHT22;29175;51.030;4.606;2022-12-20T08:03:27;12.50;99.90
43581;DHT22;29175;51.030;4.606;2022-12-20T08:05:58;12.60;99.90
43581;DHT22;29175;51.030;4.606;2022-12-20T08:08:25;12.30;99.90
43581;DHT22;29175;51.030;4.606;2022-12-20T08:10:51;12.10;99.90
43581;DHT22;29175;51.030;4.606;2022-12-20T08:13:17;12.10;99.90
43581;DHT22;29175;51.030;4.606;2022-12-20T08:15:43;12.00;99.90
43581;DHT22;29175;51.030;4.606;2022-12-20T08:18:08;12.10;99.90
43581;DHT22;29175;51.030;4.606;2022-12-20T08:20:34;12.10;99.90
43581;DHT22;29175;51.030;4.606;2022-12-20T08:23:02;12.20;99.90
43581;DHT22;29175;51.030;4.606;2022-12-20T08:25:28;12.30;99.90
43581;DHT22;29175;51.030;4.606;2022-12-20T08:27:54;12.40;99.90
43581;DHT22;29175;51.030;4.606;2022-12-20T08:30:20;12.50;99.90
43581;DHT22;29175;51.030;4.606;2022-12-20T08:32:45;12.50;99.90
43581;DHT22;29175;51.030;4.606;2022-12-20T08:35:11;12.20;99.90
43581;DHT22;29175;51.030;4.606;2022-12-20T08:37:38;12.20;99.90
43581;DHT22;29175;51.030;4.606;2022-12-20T08:40:04;12.20;99.90
43581;DHT22;29175;51.030;4.606;2022-12-20T08:42:30;12.50;99.90
43581;DHT22;29175;51.030;4.606;2022-12-20T08:44:57;12.60;99.90
43581;DHT22;29175;51.030;4.606;2022-12-20T08:47:23;12.70;99.90
43581;DHT22;29175;51.030;4.606;2022-12-20T08:49:49;12.60;99.90
43581;DHT22;29175;51.030;4.606;2022-12-20T08:52:15;12.60;99.90
43581;DHT22;29175;51.030;4.606;2022-12-20T08:54:40;12.50;99.90
43581;DHT22;29175;51.030;4.606;2022-12-20T08:57:07;12.60;99.90
43581;DHT22;29175;51.030;4.606;2022-12-20T08:59:33;12.50;99.90
43581;DHT22;29175;51.030;4.606;2022-12-20T09:01:58;12.50;99.90
43581;DHT22;29175;51.030;4.606;2022-12-20T09:04:24;12.60;99.90
43581;DHT22;29175;51.030;4.606;2022-12-20T09:06:50;12.70;99.90
43581;DHT22;29175;51.030;4.606;2022-12-20T09:09:15;12.60;99.90
43581;DHT22;29175;51.030;4.606;2022-12-20T09:11:41;12.70;99.90
43581;DHT22;29175;51.030;4.606;2022-12-20T09:14:08;12.90;99.90
43581;DHT22;29175;51.030;4.606;2022-12-20T09:16:34;13.00;99.90
43581;DHT22;29175;51.030;4.606;2022-12-20T09:19:01;13.00;99.90
43581;DHT22;29175;51.030;4.606;2022-12-20T09:21:28;12.70;99.90
43581;DHT22;29175;51.030;4.606;2022-12-20T09:23:55;12.70;99.90
43581;DHT22;29175;51.030;4.606;2022-12-20T09:26:21;12.70;99.90
43581;DHT22;29175;51.030;4.606;2022-12-20T09:28:48;12.90;99.90
43581;DHT22;29175;51.030;4.606;2022-12-20T09:31:16;12.60;99.90
43581;DHT22;29175;51.030;4.606;2022-12-20T09:33:42;12.80;99.90
43581;DHT22;29175;51.030;4.606;2022-12-20T09:36:14;12.70;99.90
43581;DHT22;29175;51.030;4.606;2022-12-20T09:38:40;12.60;99.90
43581;DHT22;29175;51.030;4.606;2022-12-20T09:41:07;12.40;99.90
43581;DHT22;29175;51.030;4.606;2022-12-20T09:43:40;12.40;99.90
43581;DHT22;29175;51.030;4.606;2022-12-20T09:46:06;12.80;99.90
43581;DHT22;29175;51.030;4.606;2022-12-20T09:48:37;13.10;99.90
43581;DHT22;29175;51.030;4.606;2022-12-20T09:51:11;13.00;99.90
43581;DHT22;29175;51.030;4.606;2022-12-20T09:59:11;13.10;99.90
43581;DHT22;29175;51.030;4.606;2022-12-20T10:01:42;13.10;99.90
43581;DHT22;29175;51.030;4.606;2022-12-20T10:20:50;13.00;99.90
43581;DHT22;29175;51.030;4.606;2022-12-20T10:23:44;12.80;99.90
43581;DHT22;29175;51.030;4.606;2022-12-20T10:26:12;12.90;99.90
43581;DHT22;29175;51.030;4.606;2022-12-20T10:28:38;12.60;99.90
43581;DHT22;29175;51.030;4.606;2022-12-20T10:31:16;12.70;99.90
43581;DHT22;29175;51.030;4.606;2022-12-20T10:33:42;12.60;99.90
43581;DHT22;29175;51.030;4.606;2022-12-20T10:36:28;12.50;99.90
43581;DHT22;29175;51.030;4.606;2022-12-20T10:38:57;12.50;99.90
43581;DHT22;29175;51.030;4.606;2022-12-20T10:41:28;12.70;99.90
43581;DHT22;29175;51.030;4.606;2022-12-20T10:44:00;12.70;99.90
43581;DHT22;29175;51.030;4.606;2022-12-20T10:46:39;12.90;99.90
43581;DHT22;29175;51.030;4.606;2022-12-20T10:51:53;12.50;99.90
43581;DHT22;29175;51.030;4.606;2022-12-20T10:54:30;12.50;99.90
43581;DHT22;29175;51.030;4.606;2022-12-20T10:56:59;12.40;99.90
43581;DHT22;29175;51.030;4.606;2022-12-20T10:59:35;12.40;99.90
43581;DHT22;29175;51.030;4.606;2022-12-20T11:05:02;12.60;99.90
43581;DHT22;29175;51.030;4.606;2022-12-20T11:07:33;12.40;99.90
43581;DHT22;29175;51.030;4.606;2022-12-20T11:10:18;12.40;99.90
43581;DHT22;29175;51.030;4.606;2022-12-20T11:12:55;12.50;99.90
43581;DHT22;29175;51.030;4.606;2022-12-20T11:15:27;12.50;99.90
43581;DHT22;29175;51.030;4.606;2022-12-20T11:18:33;12.60;99.90
43581;DHT22;29175;51.030;4.606;2022-12-20T11:30:08;12.60;99.90
43581;DHT22;29175;51.030;4.606;2022-12-20T11:35:59;12.70;99.90
43581;DHT22;29175;51.030;4.606;2022-12-20T11:43:51;12.70;99.90
43581;DHT22;29175;51.030;4.606;2022-12-20T11:52:09;12.70;99.90
43581;DHT22;29175;51.030;4.606;2022-12-20T11:54:45;12.50;99.90
43581;DHT22;29175;51.030;4.606;2022-12-20T11:57:20;12.60;99.90
43581;DHT22;29175;51.030;4.606;2022-12-20T11:59:58;12.50;99.90
43581;DHT22;29175;51.030;4.606;2022-12-20T12:05:19;12.30;99.90
43581;DHT22;29175;51.030;4.606;2022-12-20T12:07:48;12.20;99.90
43581;DHT22;29175;51.030;4.606;2022-12-20T12:10:22;12.30;99.90
43581;DHT22;29175;51.030;4.606;2022-12-20T12:12:55;12.50;99.90
43581;DHT22;29175;51.030;4.606;2022-12-20T12:15:33;12.50;99.90
43581;DHT22;29175;51.030;4.606;2022-12-20T12:18:04;12.40;99.90
43581;DHT22;29175;51.030;4.606;2022-12-20T12:21:19;12.80;99.90
43581;DHT22;29175;51.030;4.606;2022-12-20T12:25:58;12.70;99.90
43581;DHT22;29175;51.030;4.606;2022-12-20T12:28:26;12.60;99.90
43581;DHT22;29175;51.030;4.606;2022-12-20T12:30:59;12.30;99.90
43581;DHT22;29175;51.030;4.606;2022-12-20T12:33:58;12.30;99.90
43581;DHT22;29175;51.030;4.606;2022-12-20T12:41:50;12.20;99.90
43581;DHT22;29175;51.030;4.606;2022-12-20T12:46:59;12.50;99.90
43581;DHT22;29175;51.030;4.606;2022-12-20T12:49:28;12.50;99.90
43581;DHT22;29175;51.030;4.606;2022-12-20T12:51:58;12.50;99.90
43581;DHT22;29175;51.030;4.606;2022-12-20T12:54:28;12.60;99.90
43581;DHT22;29175;51.030;4.606;2022-12-20T12:57:21;12.50;99.90
43581;DHT22;29175;51.030;4.606;2022-12-20T12:59:48;12.50;99.90
43581;DHT22;29175;51.030;4.606;2022-12-20T13:12:59;12.60;99.90
43581;DHT22;29175;51.030;4.606;2022-12-20T13:20:31;12.30;99.90
43581;DHT22;29175;51.030;4.606;2022-12-20T13:25:37;12.40;99.90
43581;DHT22;29175;51.030;4.606;2022-12-20T13:30:45;12.40;99.90
43581;DHT22;29175;51.030;4.606;2022-12-20T13:33:23;12.20;99.90
43581;DHT22;29175;51.030;4.606;2022-12-20T13:36:01;12.20;99.90
43581;DHT22;29175;51.030;4.606;2022-12-20T13:41:42;12.30;99.90
43581;DHT22;29175;51.030;4.606;2022-12-20T13:46:57;12.30;99.90
43581;DHT22;29175;51.030;4.606;2022-12-20T13:49:27;12.10;99.90
43581;DHT22;29175;51.030;4.606;2022-12-20T13:52:19;12.20;99.90
43581;DHT22;29175;51.030;4.606;2022-12-20T13:54:48;12.20;99.90
43581;DHT22;29175;51.030;4.606;2022-12-20T13:57:32;12.30;99.90
43581;DHT22;29175;51.030;4.606;2022-12-20T14:00:06;12.40;99.90
43581;DHT22;29175;51.030;4.606;2022-12-20T14:02:40;12.40;99.90
43581;DHT22;29175;51.030;4.606;2022-12-20T14:05:22;12.40;99.90
43581;DHT22;29175;51.030;4.606;2022-12-20T14:08:20;12.40;99.90
43581;DHT22;29175;51.030;4.606;2022-12-20T14:10:47;12.20;99.90
43581;DHT22;29175;51.030;4.606;2022-12-20T14:13:31;12.10;99.90
43581;DHT22;29175;51.030;4.606;2022-12-20T14:16:09;12.20;99.90
43581;DHT22;29175;51.030;4.606;2022-12-20T14:18:35;12.10;99.90
43581;DHT22;29175;51.030;4.606;2022-12-20T14:21:03;12.10;99.90
43581;DHT22;29175;51.030;4.606;2022-12-20T14:23:39;12.20;99.90
43581;DHT22;29175;51.030;4.606;2022-12-20T14:28:49;12.10;99.90
43581;DHT22;29175;51.030;4.606;2022-12-20T14:31:40;12.10;99.90
43581;DHT22;29175;51.030;4.606;2022-12-20T14:36:47;12.20;99.90
43581;DHT22;29175;51.030;4.606;2022-12-20T14:39:32;12.30;99.90
43581;DHT22;29175;51.030;4.606;2022-12-20T14:44:28;12.20;99.90
43581;DHT22;29175;51.030;4.606;2022-12-20T14:47:12;12.20;99.90
43581;DHT22;29175;51.030;4.606;2022-12-20T14:49:40;12.10;99.90
43581;DHT22;29175;51.030;4.606;2022-12-20T14:52:19;12.00;99.90
43581;DHT22;29175;51.030;4.606;2022-12-20T14:54:56;12.00;99.90
43581;DHT22;29175;51.030;4.606;2022-12-20T15:00:25;12.20;99.90
43581;DHT22;29175;51.030;4.606;2022-12-20T15:08:25;12.00;99.90
43581;DHT22;29175;51.030;4.606;2022-12-20T15:13:34;11.90;99.90
43581;DHT22;29175;51.030;4.606;2022-12-20T15:16:20;12.00;99.90
43581;DHT22;29175;51.030;4.606;2022-12-20T15:18:51;12.20;99.90
43581;DHT22;29175;51.030;4.606;2022-12-20T15:21:28;12.10;99.90
43581;DHT22;29175;51.030;4.606;2022-12-20T15:23:56;12.10;99.90
43581;DHT22;29175;51.030;4.606;2022-12-20T15:26:24;12.00;99.90
43581;DHT22;29175;51.030;4.606;2022-12-20T15:28:50;12.10;99.90
43581;DHT22;29175;51.030;4.606;2022-12-20T15:31:19;12.00;99.90
43581;DHT22;29175;51.030;4.606;2022-12-20T15:33:45;11.80;99.90
43581;DHT22;29175;51.030;4.606;2022-12-20T15:36:21;11.90;99.90
43581;DHT22;29175;51.030;4.606;2022-12-20T15:38:48;12.10;99.90
43581;DHT22;29175;51.030;4.606;2022-12-20T15:41:22;12.10;99.90
43581;DHT22;29175;51.030;4.606;2022-12-20T15:43:54;12.00;99.90
43581;DHT22;29175;51.030;4.606;2022-12-20T15:46:21;12.10;99.90
43581;DHT22;29175;51.030;4.606;2022-12-20T15:48:46;12.20;99.90
43581;DHT22;29175;51.030;4.606;2022-12-20T15:51:22;12.10;99.90
43581;DHT22;29175;51.030;4.606;2022-12-20T15:53:48;12.30;99.90
43581;DHT22;29175;51.030;4.606;2022-12-20T15:56:20;12.10;99.90
43581;DHT22;29175;51.030;4.606;2022-12-20T15:58:47;12.00;99.90
43581;DHT22;29175;51.030;4.606;2022-12-20T16:01:21;12.10;99.90
43581;DHT22;29175;51.030;4.606;2022-12-20T16:03:49;12.00;99.90
43581;DHT22;29175;51.030;4.606;2022-12-20T16:06:15;12.10;99.90
43581;DHT22;29175;51.030;4.606;2022-12-20T16:08:41;12.20;99.90
43581;DHT22;29175;51.030;4.606;2022-12-20T16:11:20;12.00;99.90
43581;DHT22;29175;51.030;4.606;2022-12-20T16:13:47;12.10;99.90
43581;DHT22;29175;51.030;4.606;2022-12-20T16:16:18;12.10;99.90
43581;DHT22;29175;51.030;4.606;2022-12-20T16:18:44;12.20;99.90
43581;DHT22;29175;51.030;4.606;2022-12-20T16:21:16;12.10;99.90
43581;DHT22;29175;51.030;4.606;2022-12-20T16:23:43;12.00;99.90
43581;DHT22;29175;51.030;4.606;2022-12-20T16:26:14;12.00;99.90
43581;DHT22;29175;51.030;4.606;2022-12-20T16:28:41;12.00;99.90
43581;DHT22;29175;51.030;4.606;2022-12-20T16:31:30;12.10;99.90
43581;DHT22;29175;51.030;4.606;2022-12-20T16:33:57;12.20;99.90
43581;DHT22;29175;51.030;4.606;2022-12-20T16:36:23;12.20;99.90
43581;DHT22;29175;51.030;4.606;2022-12-20T16:38:50;12.20;99.90
43581;DHT22;29175;51.030;4.606;2022-12-20T16:41:22;12.10;99.90
43581;DHT22;29175;51.030;4.606;2022-12-20T16:43:48;12.10;99.90
43581;DHT22;29175;51.030;4.606;2022-12-20T16:46:19;12.10;99.90
43581;DHT22;29175;51.030;4.606;2022-12-20T16:48:46;12.20;99.90
43581;DHT22;29175;51.030;4.606;2022-12-20T16:53:50;12.20;99.90
43581;DHT22;29175;51.030;4.606;2022-12-20T16:56:16;12.10;99.90
43581;DHT22;29175;51.030;4.606;2022-12-20T16:58:42;12.10;99.90
43581;DHT22;29175;51.030;4.606;2022-12-20T17:01:17;12.10;99.90
43581;DHT22;29175;51.030;4.606;2022-12-20T17:03:45;12.20;99.90
43581;DHT22;29175;51.030;4.606;2022-12-20T17:06:14;12.10;99.90
43581;DHT22;29175;51.030;4.606;2022-12-20T17:08:42;12.10;99.90
43581;DHT22;29175;51.030;4.606;2022-12-20T17:11:16;12.00;99.90
43581;DHT22;29175;51.030;4.606;2022-12-20T17:13:43;12.00;99.90
43581;DHT22;29175;51.030;4.606;2022-12-20T17:16:13;12.00;99.90
43581;DHT22;29175;51.030;4.606;2022-12-20T17:18:45;12.10;99.90
43581;DHT22;29175;51.030;4.606;2022-12-20T17:21:41;12.00;99.90
43581;DHT22;29175;51.030;4.606;2022-12-20T17:24:17;12.20;99.90
43581;DHT22;29175;51.030;4.606;2022-12-20T17:26:43;12.10;99.90
43581;DHT22;29175;51.030;4.606;2022-12-20T17:29:09;12.10;99.90
43581;DHT22;29175;51.030;4.606;2022-12-20T17:31:38;12.10;99.90
43581;DHT22;29175;51.030;4.606;2022-12-20T17:34:06;12.30;99.90
43581;DHT22;29175;51.030;4.606;2022-12-20T17:36:39;12.30;99.90
43581;DHT22;29175;51.030;4.606;2022-12-20T17:39:05;12.20;99.90
43581;DHT22;29175;51.030;4.606;2022-12-20T17:41:31;12.40;99.90
43581;DHT22;29175;51.030;4.606;2022-12-20T17:43:59;12.30;99.90
43581;DHT22;29175;51.030;4.606;2022-12-20T17:46:26;12.30;99.90
43581;DHT22;29175;51.030;4.606;2022-12-20T17:48:54;12.30;99.90
43581;DHT22;29175;51.030;4.606;2022-12-20T17:51:28;12.30;99.90
43581;DHT22;29175;51.030;4.606;2022-12-20T17:53:57;12.30;99.90
43581;DHT22;29175;51.030;4.606;2022-12-20T17:56:28;12.30;99.90
43581;DHT22;29175;51.030;4.606;2022-12-20T17:58:55;12.40;99.90